createdAt,value
2018-07-14T10:41:17.992Z,18.80
2018-07-14T10:43:46.340Z,18.70
2018-07-14T10:46:14.646Z,18.70
2018-07-14T10:48:42.913Z,18.80
2018-07-14T10:51:11.172Z,18.90
2018-07-14T10:53:39.396Z,18.90
2018-07-14T10:56:07.649Z,18.90
2018-07-14T10:58:35.916Z,19.00
2018-07-14T11:01:04.274Z,19.20
2018-07-14T11:03:32.602Z,19.30
2018-07-14T11:06:00.817Z,19.30
2018-07-14T11:08:28.959Z,19.40
2018-07-14T11:10:57.154Z,19.30
2018-07-14T11:13:25.337Z,19.30
2018-07-14T11:15:53.570Z,19.30
2018-07-14T11:18:21.691Z,19.40
2018-07-14T11:20:49.883Z,19.50
2018-07-14T11:23:18.078Z,19.60
2018-07-14T11:25:46.327Z,19.50
2018-07-14T11:28:14.470Z,19.60
2018-07-14T11:30:42.681Z,19.70
2018-07-14T11:33:10.861Z,19.70
2018-07-14T11:35:39.043Z,19.80
2018-07-14T11:38:07.287Z,19.90
2018-07-14T11:40:35.460Z,20.10
2018-07-14T11:43:03.718Z,20.30
2018-07-14T11:45:31.907Z,20.70
2018-07-14T11:48:00.193Z,20.90
2018-07-14T11:50:28.353Z,21.00
2018-07-14T11:52:56.543Z,21.20
2018-07-14T11:55:24.711Z,21.30
2018-07-14T11:57:52.875Z,21.30
2018-07-14T12:00:21.057Z,21.40
2018-07-14T12:02:49.496Z,21.40
2018-07-14T12:05:17.720Z,21.50
2018-07-14T12:07:45.903Z,21.60
2018-07-14T12:10:14.114Z,21.80
2018-07-14T12:12:42.348Z,21.80
2018-07-14T12:15:10.583Z,22.00
2018-07-14T12:17:38.903Z,22.00
2018-07-14T12:20:07.168Z,22.00
2018-07-14T12:22:35.344Z,22.00
2018-07-14T12:25:03.564Z,22.10
2018-07-14T12:27:31.737Z,22.10
2018-07-14T12:29:59.959Z,22.00
2018-07-14T12:32:28.083Z,21.90
2018-07-14T12:34:56.441Z,21.90
2018-07-14T12:37:24.698Z,22.00
2018-07-14T12:39:52.980Z,22.10
2018-07-14T12:42:21.294Z,22.20
2018-07-14T12:44:49.555Z,22.30
2018-07-14T12:47:17.832Z,22.30
2018-07-14T12:49:46.104Z,22.20
2018-07-14T12:52:14.395Z,22.10
2018-07-14T12:54:42.613Z,21.90
2018-07-14T12:57:10.885Z,21.70
2018-07-14T12:59:39.101Z,21.60
2018-07-14T13:02:07.470Z,21.50
2018-07-14T13:04:35.726Z,21.60
2018-07-14T13:07:04.167Z,21.50
2018-07-14T13:09:32.336Z,21.40
2018-07-14T13:12:00.541Z,21.20
2018-07-14T13:14:28.798Z,21.10
2018-07-14T13:16:57.161Z,21.20
2018-07-14T13:19:25.518Z,21.30
2018-07-14T13:21:54.240Z,21.30
2018-07-14T13:24:27.117Z,21.40
2018-07-14T13:26:55.431Z,21.50
2018-07-14T13:29:23.625Z,21.70
2018-07-14T13:31:51.860Z,21.80
2018-07-14T13:34:20.113Z,21.90
2018-07-14T13:36:48.348Z,22.00
2018-07-14T13:39:16.812Z,22.10
2018-07-14T13:41:45.050Z,22.10
2018-07-14T13:44:13.261Z,22.10
2018-07-14T13:46:41.443Z,22.20
2018-07-14T13:49:09.694Z,22.30
2018-07-14T13:51:37.956Z,22.40
2018-07-14T13:54:06.513Z,22.40
2018-07-14T13:56:34.810Z,22.40
2018-07-14T13:59:03.019Z,22.30
2018-07-14T14:01:31.279Z,22.30
2018-07-14T14:03:59.499Z,22.30
2018-07-14T14:06:27.659Z,22.20
2018-07-14T14:08:55.784Z,22.10
2018-07-14T14:11:24.087Z,22.00
